Terminal Aerodrome Forecast
Issued by NWS

Home | Current Version | Previous Version | Text Only | Print | Product List | Glossary On
Versions: 1 2 3 4 5 6 7 8 9 10 11 12 13 14 15 16 17 18 19 20 21 22 23
000
FTUS46 KSEW 270600 AAA
TAFHQM
TAF AMD
KHQM 270653Z 2707/2806 07008KT 5SM -RA BR SCT008 BKN014 OVC045
     FM271500 05007KT P6SM -RA SCT012 OVC025
     FM272100 04010KT P6SM SCT025 BKN050=

USA.gov is the U.S. government's official web portal to all federal, state and local government web resources and services.